sensor_id;sensor_type;location;lat;lon;timestamp;P1;durP1;ratioP1;P2;durP2;ratioP2
30466;SDS011;17258;52.560;13.046;2023-08-31T00:00:00;2.28;;;2.08;;
30466;SDS011;17258;52.560;13.046;2023-08-31T00:10:04;1.98;;;1.88;;
30466;SDS011;17258;52.560;13.046;2023-08-31T00:20:12;3.00;;;2.38;;
30466;SDS011;17258;52.560;13.046;2023-08-31T00:30:13;2.33;;;2.22;;
30466;SDS011;17258;52.560;13.046;2023-08-31T00:40:14;2.35;;;2.25;;
30466;SDS011;17258;52.560;13.046;2023-08-31T00:50:16;2.75;;;2.55;;
30466;SDS011;17258;52.560;13.046;2023-08-31T01:00:19;3.78;;;2.70;;
30466;SDS011;17258;52.560;13.046;2023-08-31T01:10:23;1.90;;;1.80;;
30466;SDS011;17258;52.560;13.046;2023-08-31T01:20:38;1.50;;;1.40;;
30466;SDS011;17258;52.560;13.046;2023-08-31T01:31:03;1.65;;;1.55;;
30466;SDS011;17258;52.560;13.046;2023-08-31T01:41:06;2.45;;;1.63;;
30466;SDS011;17258;52.560;13.046;2023-08-31T01:51:11;1.73;;;1.35;;
30466;SDS011;17258;52.560;13.046;2023-08-31T02:01:12;2.08;;;1.42;;
30466;SDS011;17258;52.560;13.046;2023-08-31T02:11:13;1.03;;;1.00;;
30466;SDS011;17258;52.560;13.046;2023-08-31T02:21:13;1.83;;;1.30;;
30466;SDS011;17258;52.560;13.046;2023-08-31T02:31:16;2.07;;;1.47;;
30466;SDS011;17258;52.560;13.046;2023-08-31T02:41:17;1.02;;;0.93;;
30466;SDS011;17258;52.560;13.046;2023-08-31T02:51:18;1.13;;;1.03;;
30466;SDS011;17258;52.560;13.046;2023-08-31T03:01:18;1.30;;;1.20;;
30466;SDS011;17258;52.560;13.046;2023-08-31T03:11:19;1.07;;;1.07;;
30466;SDS011;17258;52.560;13.046;2023-08-31T03:21:20;1.30;;;1.20;;
30466;SDS011;17258;52.560;13.046;2023-08-31T03:31:20;1.30;;;1.20;;
30466;SDS011;17258;52.560;13.046;2023-08-31T03:41:24;1.65;;;1.55;;
30466;SDS011;17258;52.560;13.046;2023-08-31T03:51:25;1.65;;;1.55;;
30466;SDS011;17258;52.560;13.046;2023-08-31T04:01:25;3.20;;;2.07;;
30466;SDS011;17258;52.560;13.046;2023-08-31T04:11:26;1.93;;;1.83;;
30466;SDS011;17258;52.560;13.046;2023-08-31T04:21:27;2.10;;;1.90;;
30466;SDS011;17258;52.560;13.046;2023-08-31T04:31:31;2.95;;;2.00;;
30466;SDS011;17258;52.560;13.046;2023-08-31T04:41:32;4.32;;;2.00;;
30466;SDS011;17258;52.560;13.046;2023-08-31T04:51:34;2.20;;;1.77;;
30466;SDS011;17258;52.560;13.046;2023-08-31T05:01:37;2.10;;;2.00;;
30466;SDS011;17258;52.560;13.046;2023-08-31T05:11:38;2.55;;;1.98;;
30466;SDS011;17258;52.560;13.046;2023-08-31T05:21:39;2.60;;;2.40;;
30466;SDS011;17258;52.560;13.046;2023-08-31T05:31:40;3.90;;;2.43;;
30466;SDS011;17258;52.560;13.046;2023-08-31T05:41:40;2.33;;;2.20;;
30466;SDS011;17258;52.560;13.046;2023-08-31T05:51:41;3.85;;;3.55;;
30466;SDS011;17258;52.560;13.046;2023-08-31T06:01:43;9.60;;;9.00;;
30466;SDS011;17258;52.560;13.046;2023-08-31T06:11:43;8.00;;;7.50;;
30466;SDS011;17258;52.560;13.046;2023-08-31T06:21:44;5.53;;;4.95;;
30466;SDS011;17258;52.560;13.046;2023-08-31T06:31:45;9.30;;;8.70;;
30466;SDS011;17258;52.560;13.046;2023-08-31T06:41:51;12.82;;;11.77;;
30466;SDS011;17258;52.560;13.046;2023-08-31T06:52:03;12.05;;;11.25;;
30466;SDS011;17258;52.560;13.046;2023-08-31T07:02:08;7.20;;;6.80;;
30466;SDS011;17258;52.560;13.046;2023-08-31T07:12:08;5.03;;;4.73;;
30466;SDS011;17258;52.560;13.046;2023-08-31T07:22:13;3.45;;;2.65;;
30466;SDS011;17258;52.560;13.046;2023-08-31T07:32:14;4.20;;;3.88;;
30466;SDS011;17258;52.560;13.046;2023-08-31T07:42:15;10.00;;;7.97;;
30466;SDS011;17258;52.560;13.046;2023-08-31T07:52:18;11.15;;;10.35;;
30466;SDS011;17258;52.560;13.046;2023-08-31T08:02:24;5.13;;;4.82;;
30466;SDS011;17258;52.560;13.046;2023-08-31T08:12:25;13.93;;;13.13;;
30466;SDS011;17258;52.560;13.046;2023-08-31T08:22:32;13.68;;;12.98;;
30466;SDS011;17258;52.560;13.046;2023-08-31T08:32:33;7.68;;;7.05;;
30466;SDS011;17258;52.560;13.046;2023-08-31T08:42:36;10.60;;;9.88;;
30466;SDS011;17258;52.560;13.046;2023-08-31T08:52:41;13.80;;;13.00;;
30466;SDS011;17258;52.560;13.046;2023-08-31T09:02:49;14.23;;;13.43;;
30466;SDS011;17258;52.560;13.046;2023-08-31T09:12:52;12.25;;;11.18;;
30466;SDS011;17258;52.560;13.046;2023-08-31T09:22:55;14.35;;;13.55;;
30466;SDS011;17258;52.560;13.046;2023-08-31T09:32:56;15.60;;;14.68;;
30466;SDS011;17258;52.560;13.046;2023-08-31T09:42:57;15.48;;;14.23;;
30466;SDS011;17258;52.560;13.046;2023-08-31T09:53:01;15.13;;;14.27;;
30466;SDS011;17258;52.560;13.046;2023-08-31T10:03:04;6.45;;;5.95;;
30466;SDS011;17258;52.560;13.046;2023-08-31T10:13:08;17.45;;;16.10;;
30466;SDS011;17258;52.560;13.046;2023-08-31T10:23:11;16.50;;;15.60;;
30466;SDS011;17258;52.560;13.046;2023-08-31T10:33:19;16.27;;;15.27;;
30466;SDS011;17258;52.560;13.046;2023-08-31T10:43:21;14.80;;;14.00;;
30466;SDS011;17258;52.560;13.046;2023-08-31T10:53:30;14.57;;;13.77;;
30466;SDS011;17258;52.560;13.046;2023-08-31T11:03:31;15.18;;;14.10;;
30466;SDS011;17258;52.560;13.046;2023-08-31T11:13:57;12.68;;;11.77;;
30466;SDS011;17258;52.560;13.046;2023-08-31T11:23:58;14.32;;;13.52;;
30466;SDS011;17258;52.560;13.046;2023-08-31T11:33:59;14.30;;;13.30;;
30466;SDS011;17258;52.560;13.046;2023-08-31T11:44:00;14.67;;;13.87;;
30466;SDS011;17258;52.560;13.046;2023-08-31T11:54:01;14.20;;;13.48;;
30466;SDS011;17258;52.560;13.046;2023-08-31T12:04:09;14.15;;;13.35;;
30466;SDS011;17258;52.560;13.046;2023-08-31T12:14:21;13.70;;;13.00;;
30466;SDS011;17258;52.560;13.046;2023-08-31T12:24:36;13.73;;;13.02;;
30466;SDS011;17258;52.560;13.046;2023-08-31T12:34:40;14.02;;;12.93;;
30466;SDS011;17258;52.560;13.046;2023-08-31T12:44:43;14.65;;;13.93;;
30466;SDS011;17258;52.560;13.046;2023-08-31T12:54:49;13.98;;;13.20;;
30466;SDS011;17258;52.560;13.046;2023-08-31T13:04:50;13.80;;;13.10;;
30466;SDS011;17258;52.560;13.046;2023-08-31T13:14:51;15.10;;;14.30;;
30466;SDS011;17258;52.560;13.046;2023-08-31T13:25:00;14.90;;;14.10;;
30466;SDS011;17258;52.560;13.046;2023-08-31T13:35:01;13.38;;;12.68;;
30466;SDS011;17258;52.560;13.046;2023-08-31T13:45:04;4.13;;;3.92;;
30466;SDS011;17258;52.560;13.046;2023-08-31T13:55:07;11.88;;;11.27;;
30466;SDS011;17258;52.560;13.046;2023-08-31T14:05:11;16.75;;;15.85;;
30466;SDS011;17258;52.560;13.046;2023-08-31T14:15:11;16.77;;;15.88;;
30466;SDS011;17258;52.560;13.046;2023-08-31T14:25:15;0.57;;;0.57;;
30466;SDS011;17258;52.560;13.046;2023-08-31T14:35:16;1.58;;;0.60;;
30466;SDS011;17258;52.560;13.046;2023-08-31T14:45:18;0.65;;;0.65;;
30466;SDS011;17258;52.560;13.046;2023-08-31T14:55:18;0.50;;;0.50;;
30466;SDS011;17258;52.560;13.046;2023-08-31T15:05:19;2.77;;;0.87;;
30466;SDS011;17258;52.560;13.046;2023-08-31T15:15:28;1.30;;;0.88;;
30466;SDS011;17258;52.560;13.046;2023-08-31T15:25:33;1.27;;;1.17;;
30466;SDS011;17258;52.560;13.046;2023-08-31T15:35:33;0.90;;;0.80;;
30466;SDS011;17258;52.560;13.046;2023-08-31T15:45:34;0.60;;;0.60;;
30466;SDS011;17258;52.560;13.046;2023-08-31T15:55:37;0.75;;;0.65;;
30466;SDS011;17258;52.560;13.046;2023-08-31T16:05:38;0.50;;;0.50;;
30466;SDS011;17258;52.560;13.046;2023-08-31T16:15:44;0.50;;;0.50;;
30466;SDS011;17258;52.560;13.046;2023-08-31T16:25:47;0.50;;;0.50;;
30466;SDS011;17258;52.560;13.046;2023-08-31T16:36:00;0.65;;;0.65;;
30466;SDS011;17258;52.560;13.046;2023-08-31T16:46:05;0.73;;;0.73;;
30466;SDS011;17258;52.560;13.046;2023-08-31T16:56:06;0.60;;;0.60;;
30466;SDS011;17258;52.560;13.046;2023-08-31T17:06:07;1.53;;;1.00;;
30466;SDS011;17258;52.560;13.046;2023-08-31T17:16:10;1.00;;;0.90;;
30466;SDS011;17258;52.560;13.046;2023-08-31T17:26:24;0.75;;;0.75;;
30466;SDS011;17258;52.560;13.046;2023-08-31T17:36:28;0.75;;;0.75;;
30466;SDS011;17258;52.560;13.046;2023-08-31T17:46:31;0.82;;;0.82;;
30466;SDS011;17258;52.560;13.046;2023-08-31T17:56:32;1.27;;;0.90;;
30466;SDS011;17258;52.560;13.046;2023-08-31T18:06:35;0.70;;;0.70;;
30466;SDS011;17258;52.560;13.046;2023-08-31T18:16:36;1.10;;;0.90;;
30466;SDS011;17258;52.560;13.046;2023-08-31T18:26:37;0.77;;;0.77;;
30466;SDS011;17258;52.560;13.046;2023-08-31T18:36:37;1.00;;;0.90;;
30466;SDS011;17258;52.560;13.046;2023-08-31T18:46:41;0.75;;;0.75;;
30466;SDS011;17258;52.560;13.046;2023-08-31T18:56:42;0.95;;;0.80;;
30466;SDS011;17258;52.560;13.046;2023-08-31T19:06:43;0.80;;;0.80;;
30466;SDS011;17258;52.560;13.046;2023-08-31T19:16:44;1.03;;;0.93;;
30466;SDS011;17258;52.560;13.046;2023-08-31T19:26:45;0.80;;;0.80;;
30466;SDS011;17258;52.560;13.046;2023-08-31T19:36:46;0.83;;;0.83;;
30466;SDS011;17258;52.560;13.046;2023-08-31T19:46:46;0.70;;;0.70;;
30466;SDS011;17258;52.560;13.046;2023-08-31T19:56:48;0.70;;;0.70;;
30466;SDS011;17258;52.560;13.046;2023-08-31T20:06:49;1.80;;;0.93;;
30466;SDS011;17258;52.560;13.046;2023-08-31T20:16:50;0.63;;;0.63;;
30466;SDS011;17258;52.560;13.046;2023-08-31T20:26:50;0.87;;;0.87;;
30466;SDS011;17258;52.560;13.046;2023-08-31T20:36:51;0.60;;;0.60;;
30466;SDS011;17258;52.560;13.046;2023-08-31T20:46:55;0.85;;;0.80;;
30466;SDS011;17258;52.560;13.046;2023-08-31T20:56:57;1.02;;;0.90;;
30466;SDS011;17258;52.560;13.046;2023-08-31T21:06:58;0.87;;;0.87;;
30466;SDS011;17258;52.560;13.046;2023-08-31T21:16:59;0.63;;;0.63;;
30466;SDS011;17258;52.560;13.046;2023-08-31T21:26:59;0.70;;;0.70;;
30466;SDS011;17258;52.560;13.046;2023-08-31T21:37:00;0.50;;;0.50;;
30466;SDS011;17258;52.560;13.046;2023-08-31T21:47:01;0.70;;;0.70;;
30466;SDS011;17258;52.560;13.046;2023-08-31T21:57:01;0.90;;;0.90;;
30466;SDS011;17258;52.560;13.046;2023-08-31T22:07:02;0.70;;;0.70;;
30466;SDS011;17258;52.560;13.046;2023-08-31T22:17:05;0.98;;;0.73;;
30466;SDS011;17258;52.560;13.046;2023-08-31T22:27:06;0.63;;;0.63;;
30466;SDS011;17258;52.560;13.046;2023-08-31T22:37:07;0.90;;;0.80;;
30466;SDS011;17258;52.560;13.046;2023-08-31T22:47:10;1.00;;;0.98;;
30466;SDS011;17258;52.560;13.046;2023-08-31T22:57:11;0.77;;;0.77;;
30466;SDS011;17258;52.560;13.046;2023-08-31T23:07:14;0.82;;;0.73;;
30466;SDS011;17258;52.560;13.046;2023-08-31T23:17:15;0.77;;;0.77;;
30466;SDS011;17258;52.560;13.046;2023-08-31T23:27:15;0.80;;;0.80;;
30466;SDS011;17258;52.560;13.046;2023-08-31T23:37:16;0.70;;;0.67;;
30466;SDS011;17258;52.560;13.046;2023-08-31T23:47:17;0.85;;;0.85;;
30466;SDS011;17258;52.560;13.046;2023-08-31T23:57:17;9.47;;;1.03;;
